createdAt,value
2022-10-05T00:00:15.968Z,-0.26
2022-10-05T00:03:18.997Z,-0.24
2022-10-05T00:06:21.995Z,-0.14
2022-10-05T00:09:25.056Z,-0.05
2022-10-05T00:12:30.458Z,0.07
2022-10-05T00:15:33.577Z,0.09
2022-10-05T00:18:36.582Z,0.13
2022-10-05T00:21:39.743Z,0.20
2022-10-05T00:24:42.854Z,0.28
2022-10-05T00:27:55.460Z,0.40
2022-10-05T00:30:59.890Z,0.50
2022-10-05T00:34:03.001Z,0.63
2022-10-05T00:37:07.090Z,0.69
2022-10-05T00:40:27.926Z,0.69
2022-10-05T00:43:51.192Z,0.70
2022-10-05T00:47:14.370Z,0.74
2022-10-05T00:50:49.312Z,0.83
2022-10-05T00:54:02.646Z,0.89
2022-10-05T00:57:14.408Z,0.99
2022-10-05T01:00:21.049Z,1.05
2022-10-05T01:03:38.792Z,1.12
2022-10-05T01:06:53.666Z,1.14
2022-10-05T01:10:05.219Z,1.23
2022-10-05T01:13:11.232Z,1.36
2022-10-05T01:16:32.147Z,1.50
2022-10-05T01:19:38.019Z,1.58
2022-10-05T01:22:42.414Z,1.68
2022-10-05T01:26:12.832Z,1.80
2022-10-05T01:30:01.075Z,1.87
2022-10-05T01:33:19.515Z,1.95
2022-10-05T01:36:54.634Z,2.12
2022-10-05T01:40:32.753Z,2.27
2022-10-05T01:43:38.446Z,2.42
2022-10-05T01:47:04.235Z,2.64
2022-10-05T01:50:30.091Z,2.78
2022-10-05T01:53:47.106Z,2.88
2022-10-05T01:57:12.380Z,3.02
2022-10-05T02:00:18.636Z,3.20
2022-10-05T02:03:46.018Z,3.41
2022-10-05T02:06:51.549Z,3.57
2022-10-05T02:10:21.091Z,3.71
2022-10-05T02:13:33.135Z,3.79
2022-10-05T02:16:41.539Z,3.87
2022-10-05T02:19:59.613Z,3.97
2022-10-05T02:23:11.614Z,4.08
2022-10-05T02:26:17.181Z,4.23
2022-10-05T02:29:24.537Z,4.45
2022-10-05T02:32:38.219Z,4.48
2022-10-05T02:35:41.358Z,4.61
2022-10-05T02:38:55.097Z,4.78
2022-10-05T02:42:07.358Z,4.92
2022-10-05T02:45:17.938Z,4.84
2022-10-05T02:48:40.628Z,4.72
2022-10-05T02:52:12.313Z,4.62
2022-10-05T02:55:20.415Z,4.60
2022-10-05T02:58:28.599Z,4.72
2022-10-05T03:01:44.964Z,4.77
2022-10-05T03:05:11.655Z,4.82
2022-10-05T03:08:29.892Z,4.93
2022-10-05T03:11:54.718Z,4.96
2022-10-05T03:15:24.448Z,5.03
2022-10-05T03:18:36.290Z,5.04
2022-10-05T03:21:53.840Z,5.02
2022-10-05T03:25:27.422Z,5.01
2022-10-05T03:28:40.231Z,4.95
2022-10-05T03:31:55.038Z,4.85
2022-10-05T03:35:28.199Z,4.86
2022-10-05T03:38:54.716Z,4.87
2022-10-05T03:42:09.962Z,4.89
2022-10-05T03:45:28.069Z,4.96
2022-10-05T03:48:41.642Z,5.01
2022-10-05T03:51:51.821Z,5.12
2022-10-05T03:55:06.324Z,5.28
2022-10-05T03:58:35.210Z,5.39
2022-10-05T04:02:07.090Z,5.35
2022-10-05T04:05:10.246Z,5.26
2022-10-05T04:08:45.364Z,5.22
2022-10-05T04:12:28.160Z,5.23
2022-10-05T04:15:43.261Z,5.15
2022-10-05T04:18:57.216Z,5.09
2022-10-05T04:22:16.565Z,5.01
2022-10-05T04:25:27.293Z,4.78
2022-10-05T04:28:50.915Z,4.66
2022-10-05T04:32:08.686Z,4.61
2022-10-05T04:35:44.828Z,4.67
2022-10-05T04:38:53.720Z,4.81
2022-10-05T04:42:39.007Z,4.85
2022-10-05T04:45:52.145Z,4.96
2022-10-05T04:49:14.211Z,5.08
2022-10-05T04:52:36.637Z,5.33
2022-10-05T04:56:07.658Z,5.57
2022-10-05T04:59:36.492Z,5.44
2022-10-05T05:02:49.591Z,5.12
2022-10-05T05:06:16.344Z,4.99
2022-10-05T05:09:35.615Z,4.81
2022-10-05T05:13:05.430Z,4.60
2022-10-05T05:16:31.202Z,4.50
2022-10-05T05:19:41.668Z,4.35
2022-10-05T05:23:09.526Z,4.35
2022-10-05T05:26:29.606Z,4.52
2022-10-05T05:29:45.054Z,4.45
2022-10-05T05:32:57.573Z,4.41
2022-10-05T05:36:23.386Z,4.56
2022-10-05T05:40:14.630Z,4.71
2022-10-05T05:43:49.951Z,4.85
2022-10-05T05:47:05.078Z,4.97
2022-10-05T05:50:33.043Z,4.96
2022-10-05T05:54:26.545Z,4.93
2022-10-05T05:57:42.129Z,4.74
2022-10-05T06:01:32.170Z,4.66
2022-10-05T06:05:24.675Z,4.66
2022-10-05T06:08:34.045Z,4.61
2022-10-05T06:11:57.691Z,4.65
2022-10-05T06:15:13.512Z,4.71
2022-10-05T06:18:21.157Z,4.75
2022-10-05T06:21:45.352Z,4.80
2022-10-05T06:25:00.624Z,4.87
2022-10-05T06:28:15.539Z,4.90
2022-10-05T06:32:01.423Z,4.91
2022-10-05T06:35:50.018Z,4.70
2022-10-05T06:39:26.868Z,4.28
2022-10-05T06:42:46.802Z,4.14
2022-10-05T06:46:06.735Z,4.18
2022-10-05T06:49:52.236Z,4.33
2022-10-05T06:53:24.040Z,4.48
2022-10-05T06:56:46.173Z,4.52
2022-10-05T07:00:25.471Z,4.62
2022-10-05T07:03:49.584Z,4.64
2022-10-05T07:07:31.320Z,4.66
2022-10-05T07:10:44.395Z,4.61
2022-10-05T07:14:07.653Z,4.47
2022-10-05T07:17:35.622Z,4.42
2022-10-05T07:21:02.264Z,4.42
2022-10-05T07:24:11.927Z,4.42
2022-10-05T07:27:21.518Z,4.41
2022-10-05T07:30:24.931Z,4.37
2022-10-05T07:33:51.157Z,4.30
2022-10-05T07:37:24.413Z,4.17
2022-10-05T07:40:34.597Z,4.10
2022-10-05T07:44:02.550Z,4.09
2022-10-05T07:47:19.218Z,4.06
2022-10-05T07:50:48.668Z,4.02
2022-10-05T07:54:15.526Z,3.96
2022-10-05T07:57:28.163Z,3.86
2022-10-05T08:01:00.081Z,3.81
2022-10-05T08:04:16.867Z,3.79
2022-10-05T08:07:20.803Z,3.78
2022-10-05T08:10:37.663Z,3.79
2022-10-05T08:13:53.825Z,3.79
2022-10-05T08:16:59.819Z,3.83
2022-10-05T08:20:11.408Z,3.84
2022-10-05T08:23:40.758Z,3.89
2022-10-05T08:26:53.840Z,3.90
2022-10-05T08:30:01.984Z,3.86
2022-10-05T08:33:15.973Z,3.79
2022-10-05T08:36:29.099Z,3.77
2022-10-05T08:39:41.048Z,3.76
2022-10-05T08:42:53.123Z,3.68
2022-10-05T08:46:11.564Z,3.43
2022-10-05T08:49:40.020Z,3.28
2022-10-05T08:53:12.858Z,3.19
2022-10-05T08:56:31.156Z,3.14
2022-10-05T08:59:59.845Z,3.12
2022-10-05T09:03:34.275Z,3.11
2022-10-05T09:06:58.758Z,3.11
2022-10-05T09:10:11.045Z,3.11
2022-10-05T09:13:20.306Z,3.06
2022-10-05T09:16:26.218Z,3.04
2022-10-05T09:19:44.033Z,2.99
2022-10-05T09:22:58.296Z,2.88
2022-10-05T09:26:25.895Z,2.84
2022-10-05T09:30:05.991Z,2.80
2022-10-05T09:33:19.095Z,2.74
2022-10-05T09:36:50.288Z,2.72
2022-10-05T09:40:29.957Z,2.71
2022-10-05T09:43:57.286Z,2.66
2022-10-05T09:47:42.576Z,2.62
2022-10-05T09:50:55.064Z,2.59
2022-10-05T09:54:29.913Z,2.64
2022-10-05T09:57:52.463Z,2.62
2022-10-05T10:01:29.012Z,2.59
2022-10-05T10:05:05.920Z,2.62
2022-10-05T10:08:43.075Z,2.60
2022-10-05T10:11:55.547Z,2.57
2022-10-05T10:15:28.821Z,2.55
2022-10-05T10:18:57.148Z,2.53
2022-10-05T10:22:17.795Z,2.50
2022-10-05T10:25:50.873Z,2.51
2022-10-05T10:29:19.501Z,2.48
2022-10-05T10:32:37.539Z,2.49
2022-10-05T10:36:15.987Z,2.46
2022-10-05T10:39:52.365Z,2.42
2022-10-05T10:43:02.478Z,2.38
2022-10-05T10:46:40.135Z,2.39
2022-10-05T10:49:52.867Z,2.35
2022-10-05T10:53:14.662Z,2.30
2022-10-05T10:56:48.133Z,2.26
2022-10-05T11:00:18.479Z,2.19
2022-10-05T11:03:33.524Z,2.14
2022-10-05T11:06:54.804Z,2.13
2022-10-05T11:10:24.050Z,2.11
2022-10-05T11:14:03.307Z,2.09
2022-10-05T11:17:43.787Z,2.08
2022-10-05T11:20:56.920Z,2.10
2022-10-05T11:24:04.521Z,2.13
2022-10-05T11:31:03.007Z,2.09
2022-10-05T11:34:52.191Z,2.07
2022-10-05T11:38:23.257Z,2.03
2022-10-05T11:41:47.703Z,2.05
2022-10-05T11:45:15.391Z,2.05
2022-10-05T11:48:18.697Z,2.08
2022-10-05T11:51:29.020Z,2.10
2022-10-05T11:55:09.124Z,2.13
2022-10-05T11:58:27.052Z,2.14
2022-10-05T12:01:42.167Z,2.15
2022-10-05T12:05:03.176Z,2.19
2022-10-05T12:08:45.495Z,2.07
2022-10-05T12:12:19.614Z,1.99
2022-10-05T12:15:32.505Z,1.94
2022-10-05T12:18:39.962Z,1.95
2022-10-05T12:21:52.640Z,1.99
2022-10-05T12:25:12.894Z,2.01
2022-10-05T12:28:23.586Z,1.94
2022-10-05T12:31:57.812Z,1.91
2022-10-05T12:35:05.879Z,1.92
2022-10-05T12:38:26.282Z,1.95
2022-10-05T12:41:39.576Z,1.87
2022-10-05T12:45:27.192Z,1.83
2022-10-05T12:48:57.789Z,1.70
2022-10-05T12:52:04.397Z,1.69
2022-10-05T12:55:35.414Z,1.63
2022-10-05T12:58:56.597Z,1.49
2022-10-05T13:02:12.708Z,1.43
2022-10-05T13:05:45.625Z,1.49
2022-10-05T13:09:23.293Z,1.56
2022-10-05T13:12:36.656Z,1.52
2022-10-05T13:15:59.080Z,1.43
2022-10-05T13:19:19.597Z,1.25
2022-10-05T13:22:33.500Z,1.22
2022-10-05T13:25:43.317Z,1.32
2022-10-05T13:29:18.385Z,1.44
2022-10-05T13:32:28.196Z,1.57
2022-10-05T13:35:42.944Z,1.61
2022-10-05T13:39:16.435Z,1.68
2022-10-05T13:42:48.886Z,1.74
2022-10-05T13:46:37.571Z,1.76
2022-10-05T13:49:58.962Z,1.77
2022-10-05T13:53:14.266Z,1.77
2022-10-05T13:56:28.297Z,1.78
2022-10-05T13:59:42.618Z,1.81
2022-10-05T14:02:50.726Z,1.80
2022-10-05T14:05:59.896Z,1.70
2022-10-05T14:09:03.324Z,1.49
2022-10-05T14:12:06.468Z,1.45
2022-10-05T14:15:23.956Z,1.44
2022-10-05T14:18:31.559Z,1.35
2022-10-05T14:21:50.159Z,1.30
2022-10-05T14:25:08.690Z,1.36
2022-10-05T14:28:26.443Z,1.29
2022-10-05T14:31:48.580Z,1.24
2022-10-05T14:35:05.808Z,1.25
2022-10-05T14:38:30.091Z,1.25
2022-10-05T14:41:38.215Z,1.17
2022-10-05T14:44:41.780Z,0.98
2022-10-05T14:48:02.354Z,0.86
2022-10-05T14:51:12.109Z,0.76
2022-10-05T14:54:44.979Z,0.85
2022-10-05T14:58:13.895Z,0.98
2022-10-05T15:01:33.297Z,0.95
2022-10-05T15:05:10.353Z,1.00
2022-10-05T15:08:39.725Z,0.97
2022-10-05T15:11:52.330Z,0.87
2022-10-05T15:15:04.167Z,0.82
2022-10-05T15:18:28.362Z,0.83
2022-10-05T15:22:18.632Z,0.92
2022-10-05T15:25:37.750Z,0.81
2022-10-05T15:28:50.269Z,0.86
2022-10-05T15:32:15.342Z,0.87
2022-10-05T15:35:37.372Z,0.83
2022-10-05T15:38:46.482Z,0.82
2022-10-05T15:42:15.905Z,0.83
2022-10-05T15:45:38.100Z,0.94
2022-10-05T15:48:59.282Z,1.01
2022-10-05T15:52:07.082Z,1.04
2022-10-05T15:55:28.253Z,1.06
2022-10-05T15:58:37.088Z,1.01
2022-10-05T16:02:01.324Z,1.06
2022-10-05T16:06:07.403Z,1.15
2022-10-05T16:09:25.212Z,1.21
2022-10-05T16:12:31.457Z,1.23
2022-10-05T16:16:23.956Z,1.28
2022-10-05T16:19:46.891Z,1.28
2022-10-05T16:23:18.380Z,1.27
2022-10-05T16:26:24.716Z,1.30
2022-10-05T16:29:49.011Z,1.32
2022-10-05T16:33:11.682Z,1.33
2022-10-05T16:36:24.840Z,1.37
2022-10-05T16:39:46.350Z,1.37
2022-10-05T16:43:27.511Z,1.37
2022-10-05T16:46:43.323Z,1.40
2022-10-05T16:50:15.335Z,1.42
2022-10-05T16:53:20.861Z,1.45
2022-10-05T16:56:29.264Z,1.48
2022-10-05T16:59:38.116Z,1.49
2022-10-05T17:03:12.012Z,1.50
2022-10-05T17:06:27.776Z,1.48
2022-10-05T17:09:48.148Z,1.44
2022-10-05T17:13:20.967Z,1.40
2022-10-05T17:17:02.617Z,1.40
2022-10-05T17:20:33.854Z,1.41
2022-10-05T17:23:46.224Z,1.41
2022-10-05T17:27:26.354Z,1.37
2022-10-05T17:30:48.967Z,1.33
2022-10-05T17:34:01.178Z,1.32
2022-10-05T17:37:40.984Z,1.34
2022-10-05T17:41:03.695Z,1.34
2022-10-05T17:44:17.097Z,1.32
2022-10-05T17:47:56.546Z,1.32
2022-10-05T17:51:17.940Z,1.30
2022-10-05T17:55:09.787Z,1.26
2022-10-05T17:58:25.094Z,1.22
2022-10-05T18:01:33.172Z,1.20
2022-10-05T18:04:40.642Z,1.21
2022-10-05T18:07:49.072Z,1.19
2022-10-05T18:11:13.452Z,1.15
2022-10-05T18:14:25.308Z,1.12
2022-10-05T18:17:46.811Z,1.11
2022-10-05T18:21:16.303Z,1.08
2022-10-05T18:24:46.683Z,1.04
2022-10-05T18:28:22.784Z,1.05
2022-10-05T18:31:40.472Z,1.04
2022-10-05T18:34:53.698Z,1.04
2022-10-05T18:38:27.624Z,1.06
2022-10-05T18:41:46.031Z,1.04
2022-10-05T18:45:03.959Z,1.02
2022-10-05T18:48:57.253Z,1.00
2022-10-05T18:52:10.886Z,0.98
2022-10-05T18:55:24.816Z,0.96
2022-10-05T18:58:53.199Z,0.98
2022-10-05T19:02:26.857Z,0.94
2022-10-05T19:06:00.841Z,0.93
2022-10-05T19:09:30.667Z,0.93
2022-10-05T19:13:00.178Z,0.89
2022-10-05T19:16:28.662Z,0.88
2022-10-05T19:19:56.979Z,0.84
2022-10-05T19:23:13.045Z,0.89
2022-10-05T19:26:32.573Z,0.83
2022-10-05T19:29:57.210Z,0.79
2022-10-05T19:33:22.117Z,0.76
2022-10-05T19:37:01.576Z,0.75
2022-10-05T19:40:27.079Z,0.79
2022-10-05T19:44:02.092Z,0.83
2022-10-05T19:47:47.104Z,0.78
2022-10-05T19:51:16.534Z,0.74
2022-10-05T19:54:26.404Z,0.70
2022-10-05T19:57:29.560Z,0.67
2022-10-05T20:00:35.936Z,0.69
2022-10-05T20:03:39.029Z,0.68
2022-10-05T20:06:42.840Z,0.67
2022-10-05T20:09:53.260Z,0.69
2022-10-05T20:12:59.461Z,0.66
2022-10-05T20:16:35.556Z,0.66
2022-10-05T20:19:58.208Z,0.67
2022-10-05T20:23:24.350Z,0.67
2022-10-05T20:27:02.704Z,0.64
2022-10-05T20:30:07.328Z,0.59
2022-10-05T20:33:15.170Z,0.56
2022-10-05T20:36:18.161Z,0.55
2022-10-05T20:39:22.039Z,0.52
2022-10-05T20:42:26.069Z,0.51
2022-10-05T20:45:29.469Z,0.52
2022-10-05T20:48:32.461Z,0.49
2022-10-05T20:51:35.485Z,0.50
2022-10-05T20:54:40.081Z,0.52
2022-10-05T20:57:43.206Z,0.51
2022-10-05T21:01:04.706Z,0.49
2022-10-05T21:04:10.201Z,0.49
2022-10-05T21:07:13.145Z,0.49
2022-10-05T21:10:16.117Z,0.46
2022-10-05T21:13:19.110Z,0.44
2022-10-05T21:16:23.579Z,0.42
2022-10-05T21:19:26.705Z,0.42
2022-10-05T21:22:29.725Z,0.41
2022-10-05T21:25:34.029Z,0.40
2022-10-05T21:28:37.166Z,0.42
2022-10-05T21:31:40.504Z,0.38
2022-10-05T21:34:43.779Z,0.38
2022-10-05T21:37:46.705Z,0.36
2022-10-05T21:40:49.757Z,0.32
2022-10-05T21:43:52.945Z,0.31
2022-10-05T21:46:57.031Z,0.29
2022-10-05T21:50:01.002Z,0.26
2022-10-05T21:53:06.183Z,0.24
2022-10-05T21:56:13.370Z,0.17
2022-10-05T21:59:19.770Z,0.21
2022-10-05T22:02:22.748Z,0.20
2022-10-05T22:05:26.166Z,0.20
2022-10-05T22:08:31.529Z,0.20
2022-10-05T22:11:34.861Z,0.19
2022-10-05T22:14:37.815Z,0.20
2022-10-05T22:17:41.576Z,0.17
2022-10-05T22:20:46.154Z,0.17
2022-10-05T22:23:49.547Z,0.15
2022-10-05T22:26:52.508Z,0.13
2022-10-05T22:29:57.131Z,0.14
2022-10-05T22:33:00.055Z,0.13
2022-10-05T22:36:03.367Z,0.11
2022-10-05T22:39:06.374Z,0.11
2022-10-05T22:42:10.024Z,0.12
2022-10-05T22:45:12.982Z,0.12
2022-10-05T22:48:16.656Z,0.11
2022-10-05T22:51:19.619Z,0.12
2022-10-05T22:54:26.337Z,0.14
2022-10-05T22:57:39.523Z,0.19
2022-10-05T23:00:59.104Z,0.25
2022-10-05T23:04:02.656Z,0.38
2022-10-05T23:07:05.833Z,0.46
2022-10-05T23:10:11.663Z,0.53
2022-10-05T23:13:16.006Z,0.56
2022-10-05T23:16:21.820Z,0.62
2022-10-05T23:19:24.812Z,0.79
2022-10-05T23:22:27.919Z,0.95
2022-10-05T23:25:30.896Z,1.04
2022-10-05T23:28:34.131Z,1.12
2022-10-05T23:31:37.525Z,1.19
2022-10-05T23:34:40.577Z,1.29
2022-10-05T23:37:45.223Z,1.34
2022-10-05T23:40:48.295Z,1.44
2022-10-05T23:43:51.385Z,1.53
2022-10-05T23:46:54.313Z,1.58
2022-10-05T23:49:57.443Z,1.69
2022-10-05T23:53:00.389Z,1.78
2022-10-05T23:56:03.759Z,1.90
2022-10-05T23:59:06.679Z,2.01
